createdAt,value
2019-05-23T00:02:04.034Z,11.60
2019-05-23T00:04:34.858Z,12.73
2019-05-23T00:07:05.073Z,13.50
2019-05-23T00:09:33.505Z,12.80
2019-05-23T00:12:21.318Z,12.00
2019-05-23T00:14:52.562Z,13.60
2019-05-23T00:17:22.754Z,13.20
2019-05-23T00:19:52.410Z,12.30
2019-05-23T00:22:22.139Z,12.27
2019-05-23T00:24:51.704Z,12.33
2019-05-23T00:27:21.749Z,11.70
2019-05-23T00:29:51.208Z,10.90
2019-05-23T00:32:27.633Z,12.43
2019-05-23T00:34:56.232Z,12.87
2019-05-23T00:37:24.682Z,13.03
2019-05-23T00:39:54.159Z,13.27
2019-05-23T00:42:23.384Z,13.37
2019-05-23T00:44:52.432Z,12.30
2019-05-23T00:47:21.137Z,13.80
2019-05-23T00:49:50.244Z,13.17
2019-05-23T00:52:20.174Z,15.73
2019-05-23T00:54:50.024Z,13.47
2019-05-23T00:57:18.790Z,13.90
2019-05-23T00:59:49.260Z,15.63
2019-05-23T01:02:17.923Z,15.70
2019-05-23T01:04:47.588Z,14.80
2019-05-23T01:07:17.027Z,15.00
2019-05-23T01:09:46.183Z,15.40
2019-05-23T01:12:14.759Z,15.30
2019-05-23T01:14:44.442Z,13.40
2019-05-23T01:17:12.898Z,15.27
2019-05-23T01:19:42.178Z,14.43
2019-05-23T01:22:12.465Z,14.97
2019-05-23T01:24:45.672Z,14.27
2019-05-23T01:27:14.823Z,15.60
2019-05-23T01:29:49.948Z,14.73
2019-05-23T01:32:19.449Z,15.70
2019-05-23T01:34:47.916Z,14.67
2019-05-23T01:37:18.830Z,16.00
2019-05-23T01:39:47.356Z,13.67
2019-05-23T01:42:16.469Z,15.10
2019-05-23T01:44:45.108Z,14.37
2019-05-23T01:47:14.109Z,14.70
2019-05-23T01:49:42.751Z,13.33
2019-05-23T01:52:12.279Z,14.40
2019-05-23T01:54:42.384Z,12.13
2019-05-23T01:57:11.085Z,14.47
2019-05-23T01:59:40.313Z,13.30
2019-05-23T02:02:11.155Z,13.47
2019-05-23T02:04:40.619Z,11.83
2019-05-23T02:07:09.575Z,13.43
2019-05-23T02:09:38.397Z,13.70
2019-05-23T02:12:08.998Z,11.97
2019-05-23T02:14:38.637Z,12.60
2019-05-23T02:17:08.855Z,14.40
2019-05-23T02:19:37.921Z,13.47
2019-05-23T02:22:06.569Z,13.03
2019-05-23T02:24:35.608Z,11.90
2019-05-23T02:27:05.056Z,12.87
2019-05-23T02:29:33.614Z,12.90
2019-05-23T02:32:03.653Z,11.87
2019-05-23T02:34:32.215Z,12.10
2019-05-23T02:37:03.410Z,13.23
2019-05-23T02:39:39.705Z,13.00
2019-05-23T02:42:25.008Z,12.03
2019-05-23T02:44:55.203Z,12.70
2019-05-23T02:47:37.515Z,12.00
2019-05-23T02:50:09.809Z,14.27
2019-05-23T02:52:42.308Z,13.63
2019-05-23T02:55:23.774Z,12.07
2019-05-23T02:57:53.040Z,12.40
2019-05-23T03:00:52.364Z,13.17
2019-05-23T03:03:09.156Z,12.80
2019-05-23T03:05:38.924Z,14.07
2019-05-23T03:08:09.916Z,12.67
2019-05-23T03:10:57.657Z,14.13
2019-05-23T03:13:28.759Z,13.30
2019-05-23T03:15:58.331Z,14.30
2019-05-23T03:18:34.046Z,14.47
2019-05-23T03:21:01.574Z,15.67
2019-05-23T03:23:32.682Z,13.90
2019-05-23T03:26:19.277Z,14.77
2019-05-23T03:28:48.398Z,15.50
2019-05-23T03:31:30.716Z,14.90
2019-05-23T03:33:54.823Z,13.63
2019-05-23T03:36:23.413Z,13.97
2019-05-23T03:38:53.253Z,14.80
2019-05-23T03:41:22.086Z,14.57
2019-05-23T03:43:50.596Z,14.00
2019-05-23T03:46:24.001Z,15.10
2019-05-23T03:48:54.246Z,15.97
2019-05-23T03:51:23.598Z,15.03
2019-05-23T03:53:53.846Z,14.57
2019-05-23T03:56:22.596Z,15.50
2019-05-23T03:58:54.069Z,14.10
2019-05-23T04:01:24.185Z,15.03
2019-05-23T04:03:52.686Z,14.77
2019-05-23T04:06:21.190Z,15.20
2019-05-23T04:08:50.581Z,15.83
2019-05-23T04:11:19.421Z,15.77
2019-05-23T04:13:48.032Z,14.70
2019-05-23T04:16:16.702Z,16.90
2019-05-23T04:18:45.537Z,14.90
2019-05-23T04:21:14.315Z,15.70
2019-05-23T04:23:42.825Z,13.40
2019-05-23T04:26:11.314Z,14.10
2019-05-23T04:28:39.845Z,15.10
2019-05-23T04:31:12.700Z,15.30
2019-05-23T04:33:39.139Z,16.10
2019-05-23T04:36:07.781Z,15.50
2019-05-23T04:38:36.759Z,14.53
2019-05-23T04:41:05.521Z,16.30
2019-05-23T04:43:34.054Z,15.90
2019-05-23T04:46:03.657Z,15.47
2019-05-23T04:48:32.260Z,15.77
2019-05-23T04:51:01.179Z,16.83
2019-05-23T04:53:30.517Z,16.60
2019-05-23T04:55:59.033Z,16.40
2019-05-23T04:58:27.659Z,15.77
2019-05-23T05:00:56.166Z,16.37
2019-05-23T05:03:24.738Z,16.50
2019-05-23T05:05:53.269Z,16.10
2019-05-23T05:08:22.025Z,15.80
2019-05-23T05:10:50.932Z,16.77
2019-05-23T05:13:19.327Z,15.90
2019-05-23T05:15:48.217Z,16.90
2019-05-23T05:18:16.983Z,16.10
2019-05-23T05:20:45.775Z,15.73
2019-05-23T05:23:14.329Z,15.80
2019-05-23T05:25:42.775Z,16.53
2019-05-23T05:28:11.204Z,16.43
2019-05-23T05:30:39.741Z,16.20
2019-05-23T05:33:08.228Z,16.33
2019-05-23T05:35:36.662Z,14.53
2019-05-23T05:38:05.347Z,16.03
2019-05-23T05:40:34.090Z,14.40
2019-05-23T05:43:04.661Z,17.30
2019-05-23T05:45:33.494Z,15.10
2019-05-23T05:48:02.413Z,13.47
2019-05-23T05:50:31.209Z,15.23
2019-05-23T05:52:59.816Z,14.10
2019-05-23T05:55:28.259Z,15.10
2019-05-23T05:57:56.746Z,13.00
2019-05-23T06:00:27.053Z,14.80
2019-05-23T06:03:04.330Z,13.40
2019-05-23T06:05:44.061Z,13.77
2019-05-23T06:08:14.137Z,13.10
2019-05-23T06:10:43.209Z,14.53
2019-05-23T06:13:11.941Z,14.90
2019-05-23T06:15:40.638Z,15.30
2019-05-23T06:18:09.400Z,13.10
2019-05-23T06:20:41.102Z,15.00
2019-05-23T06:23:11.717Z,15.00
2019-05-23T06:25:40.372Z,14.30
2019-05-23T06:28:09.819Z,15.37
2019-05-23T06:30:39.418Z,14.37
2019-05-23T06:33:22.831Z,14.33
2019-05-23T06:35:39.099Z,14.37
2019-05-23T06:38:07.599Z,15.60
2019-05-23T06:40:37.063Z,16.00
2019-05-23T06:43:07.567Z,15.13
2019-05-23T06:45:37.016Z,15.40
2019-05-23T06:48:05.533Z,15.40
2019-05-23T06:50:34.258Z,15.63
2019-05-23T06:53:03.069Z,16.00
2019-05-23T06:55:31.645Z,14.10
2019-05-23T06:58:00.540Z,14.33
2019-05-23T07:00:29.885Z,13.73
2019-05-23T07:02:58.402Z,14.90
2019-05-23T07:05:29.977Z,14.90
2019-05-23T07:07:58.422Z,14.87
2019-05-23T07:10:27.560Z,15.73
2019-05-23T07:12:56.061Z,15.60
2019-05-23T07:15:26.919Z,15.23
2019-05-23T07:17:57.366Z,15.73
2019-05-23T07:20:26.047Z,15.77
2019-05-23T07:22:54.631Z,15.40
2019-05-23T07:25:23.202Z,16.80
2019-05-23T07:27:52.146Z,15.30
2019-05-23T07:30:27.637Z,14.77
2019-05-23T07:32:56.913Z,15.20
2019-05-23T07:35:25.908Z,15.77
2019-05-23T07:37:54.613Z,14.73
2019-05-23T07:40:26.213Z,14.40
2019-05-23T07:42:55.390Z,14.23
2019-05-23T07:45:28.362Z,15.10
2019-05-23T07:47:58.871Z,14.33
2019-05-23T07:50:27.393Z,14.57
2019-05-23T07:52:57.919Z,14.90
2019-05-23T07:55:46.045Z,14.00
2019-05-23T07:58:15.384Z,15.30
2019-05-23T08:01:04.037Z,14.10
2019-05-23T08:03:33.842Z,13.13
2019-05-23T08:06:05.488Z,12.30
2019-05-23T08:08:34.895Z,13.03
2019-05-23T08:11:03.481Z,13.00
2019-05-23T08:13:32.169Z,10.97
2019-05-23T08:16:01.853Z,11.30
2019-05-23T08:18:31.055Z,10.90
2019-05-23T08:20:59.496Z,12.90
2019-05-23T08:23:28.290Z,11.53
2019-05-23T08:25:57.013Z,11.90
2019-05-23T08:28:25.808Z,11.40
2019-05-23T08:30:54.619Z,11.17
2019-05-23T08:33:23.192Z,9.53
2019-05-23T08:35:51.901Z,9.40
2019-05-23T08:38:21.399Z,8.70
2019-05-23T08:40:51.282Z,8.70
2019-05-23T08:43:19.863Z,9.03
2019-05-23T08:45:48.457Z,9.10
2019-05-23T08:48:17.359Z,7.53
2019-05-23T08:50:45.834Z,7.40
2019-05-23T08:53:14.327Z,6.60
2019-05-23T08:55:43.165Z,7.20
2019-05-23T08:58:12.009Z,5.80
2019-05-23T09:00:41.446Z,6.60
2019-05-23T09:03:10.825Z,5.73
2019-05-23T09:05:40.949Z,6.80
2019-05-23T09:08:09.538Z,7.50
2019-05-23T09:10:39.317Z,6.90
2019-05-23T09:13:08.498Z,6.80
2019-05-23T09:15:37.003Z,7.40
2019-05-23T09:18:06.091Z,6.97
2019-05-23T09:20:34.652Z,7.37
2019-05-23T09:23:03.305Z,6.03
2019-05-23T09:25:31.812Z,4.97
2019-05-23T09:28:00.572Z,4.57
2019-05-23T09:30:32.990Z,3.70
2019-05-23T09:33:01.710Z,4.20
2019-05-23T09:35:30.481Z,3.50
2019-05-23T09:37:59.035Z,5.20
2019-05-23T09:40:27.795Z,5.33
2019-05-23T09:42:56.258Z,5.80
2019-05-23T09:45:25.010Z,6.10
2019-05-23T09:47:53.545Z,5.73
2019-05-23T09:50:23.721Z,5.03
2019-05-23T09:52:52.465Z,5.30
2019-05-23T09:55:21.487Z,5.30
2019-05-23T09:57:50.251Z,3.97
2019-05-23T10:00:20.616Z,4.90
2019-05-23T10:02:49.197Z,4.00
2019-05-23T10:05:18.166Z,5.10
2019-05-23T10:07:46.637Z,6.00
2019-05-23T10:10:17.045Z,6.50
2019-05-23T10:12:45.808Z,6.70
2019-05-23T10:15:16.705Z,6.17
2019-05-23T10:17:45.202Z,5.70
2019-05-23T10:20:13.615Z,5.47
2019-05-23T10:22:42.131Z,5.80
2019-05-23T10:25:10.848Z,5.50
2019-05-23T10:27:39.359Z,5.37
2019-05-23T10:30:10.898Z,5.40
2019-05-23T10:32:39.406Z,4.80
2019-05-23T10:35:09.453Z,6.10
2019-05-23T10:37:38.116Z,4.80
2019-05-23T10:40:07.576Z,5.60
2019-05-23T10:42:37.753Z,5.07
2019-05-23T10:45:07.424Z,4.87
2019-05-23T10:47:35.966Z,5.07
2019-05-23T10:50:08.807Z,6.37
2019-05-23T10:52:37.141Z,5.20
2019-05-23T10:55:06.229Z,5.53
2019-05-23T10:57:34.665Z,5.50
2019-05-23T11:00:04.852Z,4.70
2019-05-23T11:02:33.929Z,4.17
2019-05-23T11:05:12.031Z,4.90
2019-05-23T11:07:33.106Z,4.73
2019-05-23T11:10:02.267Z,4.13
2019-05-23T11:12:30.941Z,4.10
2019-05-23T11:14:59.628Z,4.60
2019-05-23T11:17:28.984Z,3.63
2019-05-23T11:19:57.468Z,4.20
2019-05-23T11:22:26.050Z,4.40
2019-05-23T11:24:54.597Z,3.90
2019-05-23T11:27:23.978Z,4.10
2019-05-23T11:29:52.414Z,5.07
2019-05-23T11:32:21.116Z,4.87
2019-05-23T11:34:49.685Z,5.07
2019-05-23T11:37:18.204Z,4.90
2019-05-23T11:39:50.006Z,4.60
2019-05-23T11:42:16.861Z,4.37
2019-05-23T11:44:45.380Z,4.60
2019-05-23T11:47:14.002Z,3.70
2019-05-23T11:49:43.779Z,4.73
2019-05-23T11:52:13.271Z,4.57
2019-05-23T11:54:42.125Z,3.70
2019-05-23T11:57:11.323Z,4.50
2019-05-23T11:59:39.902Z,4.00
2019-05-23T12:02:22.153Z,4.30
2019-05-23T12:04:51.112Z,4.57
2019-05-23T12:07:24.297Z,4.20
2019-05-23T12:09:52.776Z,4.80
2019-05-23T12:12:21.490Z,4.43
2019-05-23T12:14:50.030Z,4.83
2019-05-23T12:17:19.458Z,4.30
2019-05-23T12:19:48.349Z,5.40
2019-05-23T12:22:18.050Z,4.40
2019-05-23T12:24:46.505Z,3.30
2019-05-23T12:27:15.092Z,5.30
2019-05-23T12:29:43.705Z,4.73
2019-05-23T12:32:13.441Z,4.10
2019-05-23T12:34:42.078Z,3.80
2019-05-23T12:37:19.865Z,3.73
2019-05-23T12:39:41.312Z,3.50
2019-05-23T12:42:09.786Z,3.80
2019-05-23T12:44:38.319Z,3.60
2019-05-23T12:47:08.469Z,3.77
2019-05-23T12:49:38.669Z,3.20
2019-05-23T12:52:08.296Z,3.63
2019-05-23T12:54:36.901Z,3.27
2019-05-23T12:57:05.601Z,3.17
2019-05-23T12:59:34.996Z,3.70
2019-05-23T13:02:05.257Z,3.20
2019-05-23T13:04:34.104Z,3.63
2019-05-23T13:07:02.666Z,3.23
2019-05-23T13:09:31.274Z,4.30
2019-05-23T13:11:59.752Z,2.90
2019-05-23T13:14:29.778Z,3.10
2019-05-23T13:17:01.212Z,3.10
2019-05-23T13:19:29.091Z,3.47
2019-05-23T13:21:57.636Z,3.27
2019-05-23T13:24:26.303Z,3.70
2019-05-23T13:26:54.823Z,4.00
2019-05-23T13:29:24.755Z,3.93
2019-05-23T13:31:53.650Z,4.43
2019-05-23T13:34:22.074Z,3.60
2019-05-23T13:36:50.574Z,3.70
2019-05-23T13:39:20.855Z,3.87
2019-05-23T13:41:49.264Z,2.70
2019-05-23T13:44:33.013Z,3.20
2019-05-23T13:46:48.318Z,3.33
2019-05-23T13:49:17.449Z,2.83
2019-05-23T13:51:46.051Z,2.90
2019-05-23T13:54:14.557Z,2.80
2019-05-23T13:56:47.649Z,2.77
2019-05-23T13:59:13.574Z,3.50
2019-05-23T14:01:42.264Z,3.40
2019-05-23T14:04:10.885Z,3.50
2019-05-23T14:06:39.393Z,4.17
2019-05-23T14:09:08.940Z,3.37
2019-05-23T14:11:37.953Z,3.00
2019-05-23T14:14:07.186Z,3.73
2019-05-23T14:16:37.689Z,2.73
2019-05-23T14:19:14.916Z,2.80
2019-05-23T14:21:43.430Z,3.30
2019-05-23T14:24:11.910Z,3.60
2019-05-23T14:26:44.566Z,2.73
2019-05-23T14:29:13.223Z,3.10
2019-05-23T14:31:52.181Z,2.93
2019-05-23T14:34:20.860Z,2.73
2019-05-23T14:36:53.779Z,2.50
2019-05-23T14:39:23.940Z,2.30
2019-05-23T14:41:54.306Z,3.00
2019-05-23T14:44:24.441Z,3.13
2019-05-23T14:47:10.704Z,2.20
2019-05-23T14:49:55.650Z,2.23
2019-05-23T14:52:34.344Z,3.80
2019-05-23T14:55:04.442Z,2.73
2019-05-23T14:57:33.262Z,2.60
2019-05-23T15:00:01.744Z,2.13
2019-05-23T15:02:30.441Z,2.83
2019-05-23T15:04:59.319Z,2.23
2019-05-23T15:07:27.782Z,2.50
2019-05-23T15:09:56.279Z,2.40
2019-05-23T15:12:24.811Z,2.50
2019-05-23T15:14:53.213Z,2.43
2019-05-23T15:17:21.919Z,2.80
2019-05-23T15:19:50.351Z,2.40
2019-05-23T15:22:18.779Z,3.40
2019-05-23T15:24:47.228Z,2.43
2019-05-23T15:27:17.430Z,2.80
2019-05-23T15:29:45.949Z,2.80
2019-05-23T15:32:14.376Z,2.70
2019-05-23T15:34:42.890Z,2.40
2019-05-23T15:37:11.492Z,2.47
2019-05-23T15:39:39.913Z,2.40
2019-05-23T15:42:08.490Z,2.30
2019-05-23T15:44:36.949Z,2.30
2019-05-23T15:47:05.734Z,2.03
2019-05-23T15:49:34.751Z,2.10
2019-05-23T15:52:21.091Z,2.70
2019-05-23T15:54:51.444Z,3.00
2019-05-23T15:57:21.488Z,2.83
2019-05-23T16:00:03.520Z,2.47
2019-05-23T16:02:33.659Z,2.47
2019-05-23T16:05:02.736Z,2.50
2019-05-23T16:07:31.923Z,2.00
2019-05-23T16:10:00.840Z,2.13
2019-05-23T16:12:29.408Z,2.40
2019-05-23T16:14:57.921Z,2.70
2019-05-23T16:17:26.831Z,2.33
2019-05-23T16:19:55.422Z,2.20
2019-05-23T16:22:23.977Z,3.10
2019-05-23T16:24:52.415Z,2.60
2019-05-23T16:27:20.921Z,2.70
2019-05-23T16:29:49.523Z,2.80
2019-05-23T16:32:18.122Z,2.30
2019-05-23T16:34:46.892Z,2.30
2019-05-23T16:37:16.097Z,1.93
2019-05-23T16:39:48.314Z,2.27
2019-05-23T16:42:14.984Z,2.30
2019-05-23T16:44:43.516Z,2.30
2019-05-23T16:47:12.043Z,1.97
2019-05-23T16:49:40.549Z,2.00
2019-05-23T16:52:09.330Z,2.17
2019-05-23T16:54:39.460Z,2.33
2019-05-23T16:57:15.592Z,2.40
2019-05-23T16:59:45.650Z,2.40
2019-05-23T17:02:31.921Z,2.10
2019-05-23T17:05:11.067Z,1.93
2019-05-23T17:07:56.233Z,2.67
2019-05-23T17:10:26.555Z,2.40
2019-05-23T17:13:02.385Z,2.20
2019-05-23T17:15:32.471Z,2.03
2019-05-23T17:18:20.829Z,2.20
2019-05-23T17:21:06.934Z,2.17
2019-05-23T17:23:37.078Z,2.40
2019-05-23T17:26:07.457Z,2.43
2019-05-23T17:28:43.832Z,2.37
2019-05-23T17:31:13.914Z,2.30
2019-05-23T17:33:42.401Z,2.53
2019-05-23T17:36:10.902Z,2.87
2019-05-23T17:38:39.458Z,3.00
2019-05-23T17:41:07.946Z,2.90
2019-05-23T17:43:36.408Z,2.90
2019-05-23T17:46:05.089Z,2.73
2019-05-23T17:48:42.979Z,2.73
2019-05-23T17:51:11.424Z,2.70
2019-05-23T17:53:39.968Z,2.37
2019-05-23T17:56:08.557Z,2.70
2019-05-23T17:58:37.112Z,2.13
2019-05-23T18:01:06.273Z,2.80
2019-05-23T18:03:35.080Z,2.90
2019-05-23T18:06:03.781Z,2.80
2019-05-23T18:08:33.489Z,3.33
2019-05-23T18:11:04.214Z,3.13
2019-05-23T18:13:32.731Z,2.70
2019-05-23T18:16:01.167Z,1.97
2019-05-23T18:18:30.096Z,2.60
2019-05-23T18:20:59.158Z,2.57
2019-05-23T18:23:27.634Z,2.90
2019-05-23T18:25:56.186Z,2.57
2019-05-23T18:28:24.917Z,3.03
2019-05-23T18:31:10.269Z,2.80
2019-05-23T18:33:39.672Z,3.20
2019-05-23T18:36:08.857Z,3.30
2019-05-23T18:38:38.131Z,3.03
2019-05-23T18:41:09.354Z,2.83
2019-05-23T18:43:39.137Z,3.13
2019-05-23T18:46:09.460Z,3.20
2019-05-23T18:48:38.050Z,3.30
2019-05-23T18:51:06.638Z,3.90
2019-05-23T18:53:35.336Z,3.30
2019-05-23T18:56:04.838Z,2.90
2019-05-23T18:58:33.565Z,3.20
2019-05-23T19:01:07.069Z,2.90
2019-05-23T19:03:35.724Z,3.73
2019-05-23T19:06:04.451Z,3.23
2019-05-23T19:08:33.039Z,2.70
2019-05-23T19:11:01.530Z,2.93
2019-05-23T19:13:30.118Z,2.90
2019-05-23T19:15:58.754Z,2.60
2019-05-23T19:18:27.958Z,2.90
2019-05-23T19:20:56.975Z,3.17
2019-05-23T19:23:25.440Z,2.93
2019-05-23T19:25:54.852Z,3.30
2019-05-23T19:28:24.406Z,2.60
2019-05-23T19:30:52.952Z,3.33
2019-05-23T19:33:21.936Z,3.93
2019-05-23T19:35:50.982Z,3.13
2019-05-23T19:38:19.809Z,3.40
2019-05-23T19:40:48.373Z,3.23
2019-05-23T19:43:19.120Z,3.70
2019-05-23T19:45:47.785Z,3.20
2019-05-23T19:48:16.724Z,2.53
2019-05-23T19:50:45.138Z,3.83
2019-05-23T19:53:13.680Z,3.63
2019-05-23T19:55:42.302Z,3.50
2019-05-23T19:58:11.116Z,3.10
2019-05-23T20:00:40.838Z,3.50
2019-05-23T20:03:09.557Z,3.60
2019-05-23T20:05:45.811Z,3.40
2019-05-23T20:08:14.519Z,3.77
2019-05-23T20:10:43.321Z,3.37
2019-05-23T20:13:12.012Z,3.47
2019-05-23T20:15:45.148Z,3.63
2019-05-23T20:18:11.292Z,3.40
2019-05-23T20:20:39.914Z,3.80
2019-05-23T20:23:09.611Z,3.90
2019-05-23T20:25:38.297Z,3.80
2019-05-23T20:28:07.453Z,4.00
2019-05-23T20:30:45.126Z,3.80
2019-05-23T20:33:13.794Z,4.00
2019-05-23T20:35:42.401Z,4.47
2019-05-23T20:38:11.019Z,4.20
2019-05-23T20:40:39.867Z,4.60
2019-05-23T20:43:08.475Z,3.90
2019-05-23T20:45:37.533Z,4.27
2019-05-23T20:48:07.208Z,3.83
2019-05-23T20:50:36.058Z,4.40
2019-05-23T20:53:04.727Z,4.17
2019-05-23T20:55:33.589Z,5.07
2019-05-23T20:58:02.295Z,4.73
2019-05-23T21:00:35.313Z,4.90
2019-05-23T21:03:06.424Z,5.90
2019-05-23T21:05:35.101Z,6.03
2019-05-23T21:08:03.680Z,5.57
2019-05-23T21:10:44.342Z,5.70
2019-05-23T21:13:12.851Z,5.50
2019-05-23T21:15:41.477Z,5.43
2019-05-23T21:18:10.029Z,4.70
2019-05-23T21:20:38.667Z,5.43
2019-05-23T21:23:07.246Z,5.27
2019-05-23T21:25:37.384Z,5.27
2019-05-23T21:28:06.341Z,5.07
2019-05-23T21:30:34.930Z,5.33
2019-05-23T21:33:03.637Z,5.50
2019-05-23T21:35:32.294Z,6.00
2019-05-23T21:38:00.818Z,6.03
2019-05-23T21:40:38.073Z,6.33
2019-05-23T21:43:06.602Z,5.50
2019-05-23T21:45:35.029Z,6.47
2019-05-23T21:48:04.063Z,5.97
2019-05-23T21:50:33.037Z,6.00
2019-05-23T21:53:02.155Z,5.80
2019-05-23T21:55:33.652Z,6.60
2019-05-23T21:58:02.093Z,6.53
2019-05-23T22:00:51.378Z,6.40
2019-05-23T22:03:21.517Z,6.30
2019-05-23T22:05:52.966Z,6.20
2019-05-23T22:08:21.413Z,6.17
2019-05-23T22:10:49.855Z,6.10
2019-05-23T22:13:20.000Z,5.80
2019-05-23T22:15:48.575Z,6.00
2019-05-23T22:18:17.160Z,6.10
2019-05-23T22:20:45.588Z,5.70
2019-05-23T22:23:14.300Z,6.50
2019-05-23T22:25:42.788Z,5.93
2019-05-23T22:28:11.293Z,6.73
2019-05-23T22:30:40.553Z,6.60
2019-05-23T22:33:09.443Z,6.20
2019-05-23T22:35:37.913Z,7.17
2019-05-23T22:38:06.725Z,6.70
2019-05-23T22:40:38.422Z,7.00
2019-05-23T22:43:18.719Z,6.60
2019-05-23T22:45:35.728Z,6.73
2019-05-23T22:48:04.717Z,6.47
2019-05-23T22:50:33.118Z,7.57
2019-05-23T22:53:01.728Z,6.10
2019-05-23T22:55:30.372Z,6.20
2019-05-23T22:57:58.827Z,6.80
2019-05-23T23:00:28.880Z,7.67
2019-05-23T23:02:57.411Z,7.30
2019-05-23T23:05:25.833Z,6.20
2019-05-23T23:07:54.395Z,6.00
2019-05-23T23:10:22.908Z,6.13
2019-05-23T23:12:51.538Z,6.80
2019-05-23T23:15:20.297Z,6.53
2019-05-23T23:17:48.698Z,7.00
2019-05-23T23:20:17.313Z,6.93
2019-05-23T23:22:45.713Z,6.73
2019-05-23T23:25:14.388Z,6.83
2019-05-23T23:27:42.825Z,7.07
2019-05-23T23:30:13.360Z,6.40
2019-05-23T23:32:41.785Z,6.70
2019-05-23T23:35:10.337Z,7.20
2019-05-23T23:37:38.727Z,7.03
2019-05-23T23:40:07.435Z,6.97
2019-05-23T23:42:35.894Z,7.10
2019-05-23T23:45:24.082Z,6.80
2019-05-23T23:48:10.203Z,6.97
2019-05-23T23:50:56.458Z,6.90
2019-05-23T23:53:42.454Z,6.80
2019-05-23T23:56:28.621Z,7.47
2019-05-23T23:58:56.421Z,6.67
